createdAt,value
2023-04-14T00:00:38.093Z,1.00
2023-04-14T00:03:05.135Z,1.00
2023-04-14T00:05:33.785Z,1.00
2023-04-14T00:08:00.854Z,1.00
2023-04-14T00:10:28.391Z,1.00
2023-04-14T00:12:55.370Z,1.00
2023-04-14T00:15:22.451Z,1.00
2023-04-14T00:17:49.385Z,1.00
2023-04-14T00:20:16.324Z,1.00
2023-04-14T00:22:43.124Z,1.00
2023-04-14T00:25:09.898Z,1.00
2023-04-14T00:27:36.644Z,1.00
2023-04-14T00:30:03.565Z,1.00
2023-04-14T00:32:30.330Z,1.00
2023-04-14T00:34:57.127Z,1.00
2023-04-14T00:37:24.531Z,1.00
2023-04-14T00:39:51.262Z,1.00
2023-04-14T00:42:18.062Z,1.00
2023-04-14T00:44:44.897Z,1.00
2023-04-14T00:47:11.665Z,1.00
2023-04-14T00:49:38.508Z,1.00
2023-04-14T00:52:06.059Z,1.00
2023-04-14T00:54:34.525Z,1.00
2023-04-14T00:57:02.800Z,1.00
2023-04-14T00:59:29.905Z,1.00
2023-04-14T01:01:57.468Z,19.70
2023-04-14T01:04:33.590Z,40.60
2023-04-14T01:07:07.545Z,41.30
2023-04-14T01:09:34.406Z,51.20
2023-04-14T01:12:44.245Z,88.60
2023-04-14T01:15:36.429Z,86.80
2023-04-14T01:18:27.911Z,80.00
2023-04-14T01:21:06.796Z,99.90
2023-04-14T01:23:42.519Z,99.90
2023-04-14T01:26:15.593Z,99.90
2023-04-14T01:29:05.141Z,1.00
2023-04-14T01:31:38.451Z,1.00
2023-04-14T01:34:23.561Z,1.00
2023-04-14T01:37:08.540Z,1.00
2023-04-14T01:39:40.561Z,82.50
2023-04-14T01:42:11.335Z,9.60
2023-04-14T01:44:40.933Z,99.90
2023-04-14T01:47:15.375Z,5.40
2023-04-14T01:49:43.915Z,28.30
2023-04-14T01:52:13.478Z,1.00
2023-04-14T01:54:42.714Z,1.00
2023-04-14T01:57:11.780Z,82.80
2023-04-14T01:59:40.918Z,99.90
2023-04-14T02:02:10.151Z,99.90
2023-04-14T02:04:39.602Z,99.90
2023-04-14T02:07:09.236Z,98.10
2023-04-14T02:09:37.898Z,99.90
2023-04-14T02:12:06.268Z,99.90
2023-04-14T02:14:34.428Z,37.80
2023-04-14T02:17:02.869Z,46.40
2023-04-14T02:19:30.611Z,1.00
2023-04-14T02:21:58.630Z,1.00
2023-04-14T02:24:25.502Z,1.00
2023-04-14T02:26:59.866Z,1.00
2023-04-14T02:29:28.820Z,1.00
2023-04-14T02:32:03.467Z,1.00
2023-04-14T02:34:37.857Z,1.00
2023-04-14T02:37:09.963Z,1.00
2023-04-14T02:39:43.516Z,99.90
2023-04-14T02:42:15.680Z,1.00
2023-04-14T02:45:04.791Z,1.00
2023-04-14T02:47:38.100Z,1.00
2023-04-14T02:50:06.988Z,1.00
2023-04-14T02:52:34.496Z,99.90
2023-04-14T02:55:04.008Z,99.90
2023-04-14T02:57:33.067Z,99.90
2023-04-14T03:00:00.789Z,99.90
2023-04-14T03:02:28.509Z,99.90
2023-04-14T03:04:55.733Z,99.90
2023-04-14T03:07:24.404Z,99.90
2023-04-14T03:09:52.625Z,99.90
2023-04-14T03:12:20.057Z,99.90
2023-04-14T03:14:48.502Z,99.90
2023-04-14T03:17:15.483Z,99.90
2023-04-14T03:19:44.098Z,99.90
2023-04-14T03:22:15.595Z,99.90
2023-04-14T03:24:43.537Z,41.60
2023-04-14T03:27:22.914Z,52.80
2023-04-14T03:29:53.071Z,57.00
2023-04-14T03:32:22.032Z,99.90
2023-04-14T03:34:53.837Z,99.90
2023-04-14T03:37:24.830Z,99.90
2023-04-14T03:39:52.964Z,99.90
2023-04-14T03:42:23.058Z,99.90
2023-04-14T03:44:54.074Z,99.90
2023-04-14T03:47:24.799Z,99.90
2023-04-14T03:49:57.104Z,99.90
2023-04-14T03:52:25.066Z,1.00
2023-04-14T03:54:54.805Z,1.00
2023-04-14T03:57:23.355Z,98.10
2023-04-14T03:59:52.641Z,99.90
2023-04-14T04:02:21.038Z,1.00
2023-04-14T04:04:49.412Z,1.00
2023-04-14T04:07:17.514Z,99.90
2023-04-14T04:09:46.544Z,99.90
2023-04-14T04:12:18.383Z,67.90
2023-04-14T04:14:45.196Z,1.00
2023-04-14T04:17:17.214Z,17.30
2023-04-14T04:19:44.824Z,89.90
2023-04-14T04:22:15.949Z,99.90
2023-04-14T04:24:44.821Z,1.00
2023-04-14T04:27:20.622Z,62.80
2023-04-14T04:29:54.153Z,1.00
2023-04-14T04:32:21.229Z,99.90
2023-04-14T04:34:51.586Z,1.00
2023-04-14T04:37:19.953Z,99.90
2023-04-14T04:39:48.566Z,1.00
2023-04-14T04:42:15.309Z,14.00
2023-04-14T04:44:42.247Z,99.90
2023-04-14T04:47:10.253Z,99.90
2023-04-14T04:49:37.087Z,99.90
2023-04-14T04:52:04.022Z,99.90
2023-04-14T04:54:30.796Z,94.10
2023-04-14T04:57:00.251Z,1.00
2023-04-14T04:59:27.315Z,1.00
2023-04-14T05:01:54.333Z,99.90
2023-04-14T05:04:21.645Z,99.90
2023-04-14T05:06:48.380Z,1.00
2023-04-14T05:09:15.384Z,1.00
2023-04-14T05:11:42.472Z,1.10
2023-04-14T05:14:09.239Z,99.90
2023-04-14T05:16:36.351Z,1.00
2023-04-14T05:19:04.005Z,1.00
2023-04-14T05:21:31.160Z,99.90
2023-04-14T05:23:58.450Z,29.60
2023-04-14T05:28:55.064Z,11.00
2023-04-14T05:31:22.017Z,99.90
2023-04-14T05:33:49.054Z,99.90
2023-04-14T05:36:15.804Z,99.90
2023-04-14T05:38:43.018Z,99.90
2023-04-14T05:41:09.972Z,23.20
2023-04-14T05:43:37.155Z,1.00
2023-04-14T05:46:04.325Z,1.00
2023-04-14T05:48:33.320Z,1.00
2023-04-14T05:51:00.434Z,1.00
2023-04-14T05:53:27.949Z,1.00
2023-04-14T05:55:54.856Z,1.00
2023-04-14T05:58:21.729Z,1.00
2023-04-14T06:00:48.502Z,1.00
2023-04-14T06:03:16.617Z,1.00
2023-04-14T06:05:43.844Z,1.00
2023-04-14T06:08:10.943Z,1.00
2023-04-14T06:10:37.708Z,1.00
2023-04-14T06:13:04.618Z,1.00
2023-04-14T06:15:31.619Z,1.00
2023-04-14T06:17:58.418Z,1.00
2023-04-14T06:20:25.702Z,1.00
2023-04-14T06:22:52.470Z,1.00
2023-04-14T06:25:19.271Z,1.00
2023-04-14T06:27:46.134Z,99.90
2023-04-14T06:30:15.308Z,99.90
2023-04-14T06:32:42.043Z,99.90
2023-04-14T06:35:16.361Z,99.90
2023-04-14T06:37:49.146Z,99.90
2023-04-14T06:40:16.017Z,99.90
2023-04-14T06:42:42.767Z,99.90
2023-04-14T06:45:09.979Z,99.90
2023-04-14T06:47:36.853Z,99.90
2023-04-14T06:50:03.951Z,99.90
2023-04-14T06:52:30.680Z,99.90
2023-04-14T06:54:57.407Z,99.90
2023-04-14T06:57:24.160Z,99.90
2023-04-14T06:59:51.157Z,99.90
2023-04-14T07:02:18.032Z,91.40
2023-04-14T07:04:44.790Z,73.70
2023-04-14T07:07:11.840Z,22.60
2023-04-14T07:09:38.606Z,5.30
2023-04-14T07:12:06.126Z,7.10
2023-04-14T07:14:33.388Z,1.00
2023-04-14T07:17:00.162Z,1.00
2023-04-14T07:19:26.885Z,1.00
2023-04-14T07:21:53.566Z,1.00
2023-04-14T07:24:20.392Z,1.00
2023-04-14T07:26:47.136Z,1.00
2023-04-14T07:29:13.835Z,1.00
2023-04-14T07:31:40.941Z,1.00
2023-04-14T07:34:07.922Z,1.00
2023-04-14T07:36:34.999Z,1.00
2023-04-14T07:39:01.713Z,1.00
2023-04-14T07:41:28.529Z,1.00
2023-04-14T07:43:55.774Z,1.00
2023-04-14T07:46:22.810Z,1.00
2023-04-14T07:48:49.670Z,1.00
2023-04-14T07:51:16.699Z,1.00
2023-04-14T07:53:44.916Z,1.00
2023-04-14T07:56:12.501Z,1.00
2023-04-14T07:58:39.447Z,1.00
2023-04-14T08:01:06.563Z,1.00
2023-04-14T08:03:33.640Z,1.00
2023-04-14T08:06:01.447Z,1.00
2023-04-14T08:08:28.331Z,1.00
2023-04-14T08:10:55.208Z,1.00
2023-04-14T08:13:21.990Z,1.00
2023-04-14T08:15:49.390Z,1.00
2023-04-14T08:18:16.361Z,1.00
2023-04-14T08:20:43.233Z,1.00
2023-04-14T08:23:11.610Z,1.00
2023-04-14T08:25:38.511Z,1.00
2023-04-14T08:28:05.713Z,1.00
2023-04-14T08:30:32.432Z,1.00
2023-04-14T08:32:59.417Z,1.00
2023-04-14T08:35:37.975Z,1.00
2023-04-14T08:38:09.806Z,1.00
2023-04-14T08:40:44.267Z,1.00
2023-04-14T08:43:13.740Z,1.00
2023-04-14T08:45:42.730Z,1.00
2023-04-14T08:48:10.243Z,1.00
2023-04-14T08:50:40.418Z,1.00
2023-04-14T08:53:09.924Z,1.00
2023-04-14T08:55:43.593Z,1.00
2023-04-14T08:58:11.293Z,1.00
2023-04-14T09:00:40.008Z,1.00
2023-04-14T09:03:09.033Z,1.00
2023-04-14T09:05:36.520Z,1.00
2023-04-14T09:08:04.253Z,1.00
2023-04-14T09:10:31.885Z,1.00
2023-04-14T09:12:58.752Z,1.00
2023-04-14T09:15:28.674Z,1.00
2023-04-14T09:17:56.132Z,1.00
2023-04-14T09:20:35.396Z,1.00
2023-04-14T09:23:09.730Z,1.00
2023-04-14T09:25:38.949Z,1.00
2023-04-14T09:28:05.727Z,1.00
2023-04-14T09:30:32.900Z,1.00
2023-04-14T09:33:00.885Z,1.00
2023-04-14T09:36:03.051Z,1.00
2023-04-14T09:38:37.755Z,1.00
2023-04-14T09:41:07.715Z,1.00
2023-04-14T09:43:36.677Z,1.00
2023-04-14T09:46:08.626Z,1.00
2023-04-14T09:48:37.432Z,1.00
2023-04-14T09:51:07.285Z,1.00
2023-04-14T09:53:39.174Z,1.00
2023-04-14T09:56:11.448Z,1.00
2023-04-14T09:58:43.588Z,1.00
2023-04-14T10:01:15.104Z,1.00
2023-04-14T10:03:46.434Z,1.00
2023-04-14T10:06:22.195Z,1.00
2023-04-14T10:08:51.516Z,1.00
2023-04-14T10:11:19.397Z,1.00
2023-04-14T10:13:53.534Z,1.00
2023-04-14T10:16:21.464Z,1.00
2023-04-14T10:18:48.811Z,1.00
2023-04-14T10:21:17.445Z,1.00
2023-04-14T10:23:44.979Z,1.00
2023-04-14T10:26:13.540Z,1.00
2023-04-14T10:28:46.757Z,1.00
2023-04-14T10:31:37.827Z,1.00
2023-04-14T10:34:12.128Z,1.00
2023-04-14T10:36:39.689Z,1.00
2023-04-14T10:39:07.635Z,1.00
2023-04-14T10:41:49.412Z,1.00
2023-04-14T10:44:32.915Z,1.00
2023-04-14T10:47:05.203Z,1.00
2023-04-14T10:49:39.244Z,1.00
2023-04-14T10:52:25.930Z,1.00
2023-04-14T10:54:55.157Z,1.00
2023-04-14T10:57:23.200Z,1.00
2023-04-14T10:59:55.186Z,1.00
2023-04-14T11:02:30.793Z,1.00
2023-04-14T11:05:06.446Z,1.00
2023-04-14T11:07:45.662Z,1.00
2023-04-14T11:10:21.936Z,1.00
2023-04-14T11:13:00.150Z,1.00
2023-04-14T11:16:03.833Z,1.00
2023-04-14T11:18:31.025Z,1.00
2023-04-14T11:21:06.738Z,1.00
2023-04-14T11:23:35.325Z,1.00
2023-04-14T11:26:02.591Z,1.00
2023-04-14T11:28:30.705Z,1.00
2023-04-14T11:31:03.378Z,1.00
2023-04-14T11:33:37.416Z,1.00
2023-04-14T11:36:05.980Z,1.00
2023-04-14T11:38:35.661Z,1.00
2023-04-14T11:41:03.827Z,1.00
2023-04-14T11:43:30.813Z,1.00
2023-04-14T11:45:59.144Z,1.00
2023-04-14T11:48:28.350Z,1.00
2023-04-14T11:50:56.169Z,1.00
2023-04-14T11:53:22.958Z,1.00
2023-04-14T11:55:51.947Z,1.00
2023-04-14T11:58:24.512Z,1.00
2023-04-14T12:00:54.197Z,1.00
2023-04-14T12:03:30.650Z,1.00
2023-04-14T12:06:00.680Z,1.00
2023-04-14T12:08:30.325Z,1.00
2023-04-14T12:10:57.865Z,1.00
2023-04-14T12:13:24.982Z,1.00
2023-04-14T12:15:52.795Z,1.00
2023-04-14T12:21:00.992Z,1.00
2023-04-14T12:23:28.006Z,1.00
2023-04-14T12:25:55.018Z,1.00
2023-04-14T12:28:29.661Z,1.00
2023-04-14T12:31:04.231Z,1.00
2023-04-14T12:33:32.389Z,1.00
2023-04-14T12:36:03.699Z,1.00
2023-04-14T12:38:31.128Z,1.00
2023-04-14T12:40:58.265Z,1.00
2023-04-14T12:43:33.646Z,1.00
2023-04-14T12:46:03.668Z,1.00
2023-04-14T12:48:58.689Z,1.00
2023-04-14T12:51:25.433Z,1.00
2023-04-14T12:53:53.575Z,1.00
2023-04-14T12:56:23.646Z,1.00
2023-04-14T12:58:51.361Z,1.00
2023-04-14T13:01:20.816Z,1.00
2023-04-14T13:03:51.256Z,1.00
2023-04-14T13:06:19.928Z,1.00
2023-04-14T13:08:48.393Z,1.00
2023-04-14T13:11:16.232Z,1.00
2023-04-14T13:13:46.500Z,1.00
2023-04-14T13:16:16.787Z,1.00
2023-04-14T13:18:46.633Z,1.00
2023-04-14T13:21:13.420Z,1.00
2023-04-14T13:23:40.721Z,1.00
2023-04-14T13:26:07.553Z,1.00
2023-04-14T13:28:37.886Z,1.00
2023-04-14T13:31:04.894Z,1.00
2023-04-14T13:33:32.855Z,1.00
2023-04-14T13:36:00.976Z,1.00
2023-04-14T13:38:27.685Z,1.00
2023-04-14T13:40:54.415Z,1.00
2023-04-14T13:43:21.568Z,1.00
2023-04-14T13:45:48.504Z,1.00
2023-04-14T13:48:15.304Z,1.00
2023-04-14T13:50:42.320Z,1.00
2023-04-14T13:53:09.287Z,1.00
2023-04-14T13:55:36.186Z,1.00
2023-04-14T13:58:03.357Z,1.00
2023-04-14T14:00:30.386Z,1.00
2023-04-14T14:02:57.268Z,1.00
2023-04-14T14:05:24.473Z,1.00
2023-04-14T14:07:51.412Z,1.00
2023-04-14T14:10:18.221Z,1.00
2023-04-14T14:12:45.423Z,1.00
2023-04-14T14:15:12.385Z,1.00
2023-04-14T14:17:39.327Z,1.00
2023-04-14T14:20:07.691Z,1.00
2023-04-14T14:22:34.487Z,1.00
2023-04-14T14:25:17.514Z,1.00
2023-04-14T14:27:44.975Z,1.00
2023-04-14T14:30:12.282Z,1.00
2023-04-14T14:32:39.082Z,1.00
2023-04-14T14:35:06.224Z,1.00
2023-04-14T14:37:32.892Z,1.00
2023-04-14T14:39:59.613Z,1.00
2023-04-14T14:42:26.988Z,1.00
2023-04-14T14:44:54.335Z,1.00
2023-04-14T14:47:21.411Z,1.00
2023-04-14T14:49:58.830Z,1.00
2023-04-14T14:52:34.379Z,1.00
2023-04-14T14:55:01.743Z,1.00
2023-04-14T14:57:29.696Z,1.00
2023-04-14T14:59:57.097Z,1.00
2023-04-14T15:02:25.090Z,1.00
2023-04-14T15:04:51.935Z,1.00
2023-04-14T15:07:18.749Z,1.00
2023-04-14T15:09:50.004Z,1.00
2023-04-14T15:12:17.480Z,1.00
2023-04-14T15:14:44.784Z,1.00
2023-04-14T15:17:11.745Z,1.00
2023-04-14T15:19:38.582Z,1.00
2023-04-14T15:22:05.535Z,1.00
2023-04-14T15:24:32.216Z,1.00
2023-04-14T15:26:58.946Z,1.00
2023-04-14T15:29:26.738Z,1.00
2023-04-14T15:31:53.635Z,1.00
2023-04-14T15:34:21.510Z,1.00
2023-04-14T15:36:48.495Z,1.00
2023-04-14T15:39:15.341Z,1.00
2023-04-14T15:41:42.348Z,1.00
2023-04-14T15:44:09.155Z,1.00
2023-04-14T15:46:35.908Z,1.00
2023-04-14T15:49:02.633Z,1.00
2023-04-14T15:51:29.330Z,1.00
2023-04-14T15:53:56.009Z,1.00
2023-04-14T15:56:23.555Z,1.00
2023-04-14T15:58:50.996Z,1.00
2023-04-14T16:01:18.021Z,1.00
2023-04-14T16:03:45.198Z,1.00
2023-04-14T16:06:12.331Z,1.00
2023-04-14T16:08:39.174Z,1.00
2023-04-14T16:11:05.940Z,1.00
2023-04-14T16:13:32.731Z,1.00
2023-04-14T16:15:59.515Z,1.00
2023-04-14T16:18:26.693Z,1.00
2023-04-14T16:20:53.467Z,1.00
2023-04-14T16:23:20.525Z,1.00
2023-04-14T16:25:51.346Z,1.00
2023-04-14T16:28:18.656Z,1.00
2023-04-14T16:30:45.858Z,1.00
2023-04-14T16:33:13.091Z,1.00
2023-04-14T16:35:40.094Z,1.00
2023-04-14T16:38:08.707Z,1.00
2023-04-14T16:40:36.134Z,1.00
2023-04-14T16:43:03.314Z,1.00
2023-04-14T16:45:33.176Z,1.00
2023-04-14T16:48:00.066Z,1.00
2023-04-14T16:50:27.352Z,1.00
2023-04-14T16:52:54.082Z,1.00
2023-04-14T16:55:20.757Z,1.00
2023-04-14T16:57:47.560Z,1.00
2023-04-14T17:00:14.674Z,1.00
2023-04-14T17:02:41.812Z,1.00
2023-04-14T17:05:10.456Z,1.00
2023-04-14T17:07:37.375Z,1.00
2023-04-14T17:10:04.373Z,1.00
2023-04-14T17:12:31.072Z,1.00
2023-04-14T17:14:57.787Z,1.00
2023-04-14T17:17:24.636Z,1.00
2023-04-14T17:19:51.587Z,1.00
2023-04-14T17:22:18.433Z,1.00
2023-04-14T17:24:45.744Z,1.00
2023-04-14T17:27:12.892Z,1.00
2023-04-14T17:29:41.131Z,1.00
2023-04-14T17:32:08.332Z,1.00
2023-04-14T17:34:35.222Z,1.00
2023-04-14T17:37:02.406Z,1.00
2023-04-14T17:39:29.212Z,1.00
2023-04-14T17:41:58.075Z,1.00
2023-04-14T17:44:31.987Z,1.00
2023-04-14T17:47:03.629Z,1.00
2023-04-14T17:49:30.742Z,1.00
2023-04-14T17:51:58.186Z,1.00
2023-04-14T17:54:25.779Z,1.00
2023-04-14T17:56:52.731Z,1.00
2023-04-14T17:59:20.519Z,1.00
2023-04-14T18:01:47.355Z,1.00
2023-04-14T18:04:14.321Z,1.00
2023-04-14T18:06:41.637Z,1.00
2023-04-14T18:09:09.344Z,1.00
2023-04-14T18:14:03.675Z,1.00
2023-04-14T18:16:31.208Z,1.00
2023-04-14T18:18:57.962Z,1.00
2023-04-14T18:21:24.811Z,1.00
2023-04-14T18:28:51.567Z,1.00
2023-04-14T18:31:18.305Z,1.00
2023-04-14T18:33:45.128Z,1.00
2023-04-14T18:36:11.940Z,1.00
2023-04-14T18:38:38.703Z,1.00
2023-04-14T18:41:05.706Z,1.00
2023-04-14T18:43:33.353Z,1.00
2023-04-14T18:46:00.398Z,1.00
2023-04-14T18:48:27.650Z,1.00
2023-04-14T18:51:00.305Z,1.00
2023-04-14T18:53:27.583Z,1.00
2023-04-14T18:55:54.330Z,1.00
2023-04-14T18:58:21.097Z,1.00
2023-04-14T19:00:47.872Z,1.00
2023-04-14T19:03:15.328Z,1.00
2023-04-14T19:05:42.280Z,1.00
2023-04-14T19:08:08.993Z,1.00
2023-04-14T19:10:36.388Z,1.00
2023-04-14T19:13:03.326Z,1.00
2023-04-14T19:15:30.034Z,1.00
2023-04-14T19:17:56.893Z,1.00
2023-04-14T19:20:24.187Z,1.00
2023-04-14T19:22:51.121Z,1.00
2023-04-14T19:25:18.525Z,1.00
2023-04-14T19:27:45.281Z,1.00
2023-04-14T19:30:12.683Z,1.00
2023-04-14T19:32:40.561Z,1.00
2023-04-14T19:35:08.391Z,1.00
2023-04-14T19:37:35.731Z,1.00
2023-04-14T19:40:06.005Z,1.00
2023-04-14T19:42:33.411Z,1.00
2023-04-14T19:45:00.725Z,1.00
2023-04-14T19:47:27.846Z,1.00
2023-04-14T19:49:55.271Z,1.00
2023-04-14T19:52:22.545Z,1.00
2023-04-14T19:54:49.713Z,1.00
2023-04-14T19:57:16.967Z,1.00
2023-04-14T19:59:44.321Z,1.00
2023-04-14T20:02:13.285Z,1.00
2023-04-14T20:04:40.532Z,1.00
2023-04-14T20:07:07.650Z,1.00
2023-04-14T20:09:34.843Z,1.00
2023-04-14T20:12:02.441Z,1.00
2023-04-14T20:14:29.404Z,1.00
2023-04-14T20:16:56.695Z,1.00
2023-04-14T20:19:24.546Z,1.00
2023-04-14T20:21:51.424Z,1.00
2023-04-14T20:24:18.600Z,1.00
2023-04-14T20:26:45.615Z,1.00
2023-04-14T20:29:12.824Z,1.00
2023-04-14T20:31:41.679Z,1.00
2023-04-14T20:34:09.038Z,1.00
2023-04-14T20:36:36.687Z,1.00
2023-04-14T20:39:07.118Z,1.00
2023-04-14T20:41:34.721Z,1.00
2023-04-14T20:44:01.694Z,1.00
2023-04-14T20:46:28.784Z,1.00
2023-04-14T20:48:56.728Z,1.00
2023-04-14T20:51:23.916Z,1.00
2023-04-14T20:53:50.891Z,1.00
2023-04-14T20:56:17.893Z,1.00
2023-04-14T20:58:45.748Z,1.00
2023-04-14T21:01:12.696Z,1.00
2023-04-14T21:03:40.204Z,1.00
2023-04-14T21:06:07.061Z,1.00
2023-04-14T21:08:33.821Z,1.00
2023-04-14T21:11:14.663Z,1.00
2023-04-14T21:15:29.406Z,1.00
2023-04-14T21:16:31.163Z,1.00
2023-04-14T21:18:57.961Z,1.00
2023-04-14T21:21:24.774Z,1.00
2023-04-14T21:23:51.850Z,1.00
2023-04-14T21:26:18.844Z,1.00
2023-04-14T21:28:45.744Z,1.00
2023-04-14T21:31:12.518Z,1.00
2023-04-14T21:33:41.507Z,1.00
2023-04-14T21:36:09.826Z,1.00
2023-04-14T21:38:38.507Z,1.00
2023-04-14T21:41:05.814Z,1.00
2023-04-14T21:43:32.648Z,1.00
2023-04-14T21:45:59.541Z,1.00
2023-04-14T21:48:26.475Z,1.00
2023-04-14T21:50:53.321Z,1.00
2023-04-14T21:53:20.770Z,1.00
2023-04-14T21:55:47.718Z,1.00
2023-04-14T21:58:34.462Z,1.00
2023-04-14T22:01:01.807Z,1.00
2023-04-14T22:03:28.745Z,1.00
2023-04-14T22:05:55.519Z,1.00
2023-04-14T22:08:23.595Z,1.00
2023-04-14T22:10:50.418Z,1.00
2023-04-14T22:13:17.175Z,1.00
2023-04-14T22:15:44.000Z,1.00
2023-04-14T22:18:11.529Z,1.00
2023-04-14T22:20:39.250Z,1.00
2023-04-14T22:23:06.036Z,1.00
2023-04-14T22:25:33.199Z,1.00
2023-04-14T22:27:59.876Z,1.00
2023-04-14T22:30:26.605Z,1.00
2023-04-14T22:32:53.343Z,1.00
2023-04-14T22:35:20.210Z,1.00
2023-04-14T22:37:46.911Z,1.00
2023-04-14T22:40:13.783Z,1.00
2023-04-14T22:42:40.662Z,1.00
2023-04-14T22:45:08.148Z,1.00
2023-04-14T22:47:34.993Z,1.00
2023-04-14T22:50:02.114Z,1.00
2023-04-14T22:52:28.852Z,1.00
2023-04-14T22:54:55.843Z,1.00
2023-04-14T22:57:22.623Z,1.00
2023-04-14T22:59:49.531Z,1.00
2023-04-14T23:02:16.621Z,1.00
2023-04-14T23:04:43.519Z,1.00
2023-04-14T23:07:10.554Z,1.00
2023-04-14T23:09:37.275Z,1.00
2023-04-14T23:12:04.564Z,1.00
2023-04-14T23:14:32.360Z,1.00
2023-04-14T23:17:01.802Z,1.00
2023-04-14T23:19:28.886Z,1.00
2023-04-14T23:21:55.598Z,1.00
2023-04-14T23:24:23.491Z,1.00
2023-04-14T23:26:50.319Z,1.00
2023-04-14T23:29:17.051Z,1.00
2023-04-14T23:31:43.893Z,1.00
2023-04-14T23:34:11.110Z,1.00
2023-04-14T23:36:38.017Z,1.00
2023-04-14T23:39:05.622Z,1.00
2023-04-14T23:41:32.574Z,1.00
2023-04-14T23:43:59.440Z,1.00
2023-04-14T23:46:26.426Z,1.00
2023-04-14T23:48:53.481Z,1.00
2023-04-14T23:51:21.879Z,1.00
2023-04-14T23:53:49.484Z,1.00
2023-04-14T23:56:16.518Z,1.00
2023-04-14T23:58:43.833Z,1.00
